x

Grays Reef - 40 Nm Southeast Of Savannah, Ga (41008) Wave Buoy

3:50am - Tue 23rd Sep 2014 All times are EDT. -4 hours from GMT.

  • Sig Wave height 4.6ft
  • Swell Direction
  • Peak Period 6s
  • Average Period 5s
  • Wind
    20mph, 25mph gusts
  • Sea Temp 82°f
  • Air Temp 75°f
  • Sea Pressure 1016.4mb
  • Grays Reef - 40 Nm Southeast Of Savannah, Ga
  • Grays Reef - 40 Nm Southeast Of Savannah, Ga

More Historic Weather Station data

Upgrade to MSW Pro to gain access to the past 30 days of data for over 8000 Wavebouys and Weather Stations around the globe.

Join Pro

Comparision Forecast

View Surf forecast
   
Tue 09/23 3:50am 4.5ft 6s 5s 20 25 mph 1016.4mb 82f 75f
2:50am 5ft 6s 5s 20 25 mph 1016.7mb 82f 73f
1:50am 5.5ft 5s 5s 25 29 mph 1016.8mb 82f 76f
12:50am 5ft 5s 4s 25 29 mph 1016.9mb 82f 73f
Mon 09/22 11:50pm 3.5ft 5s 4s 29 34 mph 1016mb 82f 78f
10:50pm 3ft 4s 4s 20 25 mph 1017.3mb 83f 78f
9:50pm 2.5ft 3s 4s 20 25 mph 1017mb 83f 78f
8:50pm 1.6ft 9s 4s 20 25 mph 1016.6mb 83f 78f
7:50pm 1.3ft 8s 5s 11 13 mph 1015.9mb 83f 82f
6:50pm 1.6ft 8s 5s 11 13 mph 1015.3mb 83f 82f
4:50pm 1.6ft 8s 5s 9 11 mph 1015.2mb 83f 82f
3:50pm 1.6ft 8s 5s 11 13 mph 1015.2mb 83f 82f
2:50pm 1.6ft 9s 4s 9 11 mph 1015.8mb 83f 82f
1:50pm 2ft 8s 4s 11 13 mph 1016.4mb 83f 81f
12:50pm 2ft 9s 4s 11 13 mph 1016.6mb 83f 80f
11:50am 2ft 4s 4s 13 16 mph 1017mb 83f 79f
10:50am 2.5ft 4s 4s 16 18 mph 1017.4mb 83f 79f
9:50am 2.5ft 4s 4s 16 18 mph 1017.3mb 83f 79f
8:50am 2.5ft 4s 4s 16 18 mph 1016.7mb 82f 80f
7:50am 2.5ft 4s 4s 16 18 mph 1015.9mb 83f 79f
6:50am 2.5ft 4s 4s 16 18 mph 1015.6mb 83f 79f
5:50am 2.5ft 4s 4s 16 20 mph 1015.1mb 83f 80f
4:50am 2.5ft 4s 4s 18 20 mph 1014.6mb 82f 80f
3:50am 3ft 4s 4s 16 20 mph 1014.7mb 82f 82f
2:50am 3ft 4s 4s 18 22 mph 1014.9mb 82f 82f
1:50am 3ft 4s 4s 18 20 mph 1015.3mb 82f 82f
12:50am 2.5ft 4s 4s 18 20 mph 1015.5mb 83f 82f
Sun 09/21 11:50pm 2.5ft 3s 4s 18 22 mph 1015.5mb 83f 82f
10:50pm 2.5ft 10s 4s 18 20 mph 1015.7mb 83f 82f
9:50pm 2.5ft 3s 4s 16 18 mph 1015.8mb 83f 82f
8:50pm 2.5ft 8s 4s 16 18 mph 1015.2mb 83f 82f
7:50pm 2ft 11s 4s 16 20 mph 1014.5mb 83f 81f
6:50pm 2.5ft 6s 5s 13
mph
1013.9mb 83f 81f
5:50pm 2.5ft 6s 6s 13 16 mph 1013.6mb 83f 81f
4:50pm 2.5ft 6s 5s 7 9 mph 1013.9mb 83f 81f
3:50pm 3ft 6s 5s 4 7 mph 1014.1mb 83f 81f
2:50pm 3ft 8s 5s 7 9 mph 1014.5mb 83f 80f
1:50pm 2.5ft 7s 5s 4 9 mph 1015.2mb 83f 78f
12:50pm 3.5ft 7s 5s 9 11 mph 1016mb 83f 77f
11:50am 3.5ft 7s 5s 11 13 mph 1016.3mb 83f 76f
10:50am 3.5ft 6s 5s 9 11 mph 1016.7mb 83f 76f
9:50am 3.5ft 6s 5s 11 16 mph 1016.1mb 83f 76f
8:50am 4ft 7s 5s 13 16 mph 1015.3mb 83f 76f
7:50am 4ft 8s 5s 16 20 mph 1014.7mb 83f 75f
6:50am 4ft 9s 5s 16 20 mph 1014mb 83f 76f
5:50am 5ft 7s 5s 18 22 mph 1013.3mb 83f 76f
4:50am 5ft 8s 5s 16 20 mph 1012.7mb 83f 76f
3:50am 5ft 8s 5s 16 20 mph 1012.6mb 83f 76f
2:50am 5ft 8s 5s 18 22 mph 1013mb 83f 76f
1:50am 5.5ft 8s 5s 20 22 mph 1012.9mb 83f 76f
12:50am 5ft 6s 5s 18 22 mph 1013.2mb 83f 76f
Sat 09/20 11:50pm 5.5ft 6s 5s 20 25 mph 1013.5mb 83f 77f
10:50pm 6ft 6s 5s 20 25 mph 1013.3mb 83f 77f
9:50pm 5.5ft 6s 5s 22 27 mph 1013.5mb 83f 77f
8:50pm 6ft 7s 5s 22 27 mph 1012.9mb 83f 77f
7:50pm 6ft 6s 5s 22 27 mph 1012.4mb 83f 77f
6:50pm 7ft 6s 5s 25 29 mph 1012.4mb 83f 77f
5:50pm 7ft 7s 5s 25 29 mph 1012.5mb 83f 77f
4:50pm 7ft 6s 5s 25 29 mph 1013.1mb 83f 75f
3:50pm 7ft 6s 5s 27 34 mph 1012.9mb 83f 75f
2:50pm 6.5ft 6s 5s 31 40 mph 1012.9mb 83f 75f
1:50pm 6ft 8s 5s 25 31 mph 1014mb 83f 76f
12:50pm 6ft 7s 5s 22 29 mph 1014.6mb 83f 79f
11:50am 6ft 8s 5s 25 29 mph 1014.8mb 83f 78f
10:50am 6ft 6s 5s 25 29 mph 1015.2mb 83f 78f
9:50am 6ft 7s 5s 22 25 mph 1014.7mb 83f 78f
8:50am 6ft 8s 5s 18 22 mph 1015.1mb 83f 77f
7:50am 5.5ft 6s 5s 27 36 mph 1014.4mb 83f 77f
6:50am 5.5ft 7s 5s 20 25 mph 1014.7mb 84f 76f
5:50am 5ft 6s 5s 16 18 mph 1014.4mb 84f 76f
4:50am 6ft 6s 5s 20 25 mph 1014.4mb 84f 76f
3:50am 5.5ft 6s 5s 20 25 mph 1014.7mb 84f 78f
2:50am 5ft 6s 5s 22 27 mph 1014.6mb 84f 80f
1:50am 5ft 6s 5s 18 25 mph 1015.5mb 84f 79f
12:50am 5ft 6s 5s 20 22 mph 1016.2mb 84f 81f
Fri 09/19 11:50pm 4.5ft 6s 5s 20 25 mph 1016.4mb 84f 80f
10:50pm 4.5ft 6s 5s 18 22 mph 1016.6mb 84f 81f
9:50pm 4.5ft 6s 5s 20 25 mph 1016.4mb 84f 80f
8:50pm 4.5ft 6s 5s 20 25 mph 1016mb 84f 80f
7:50pm 4ft 5s 5s 20 25 mph 1015.9mb 84f 80f
6:50pm 3.5ft 5s 4s 20 25 mph 1015.6mb 84f 80f
4:50pm 3.5ft 4s 4s 20 22 mph 1015.2mb 84f 80f
3:50pm 3ft 4s 4s 16 18 mph 1015.9mb 84f 78f
2:50pm 2.5ft 10s 4s 22 29 mph 1015.9mb 84f 80f
1:50pm 2.5ft 10s 4s 11 13 mph 1016.3mb 84f 82f
12:50pm 2.5ft 9s 4s 13 16 mph 1017mb 84f 81f
11:50am 2.5ft 8s 4s 11 13 mph 1016.8mb 84f 81f
10:50am 2ft 10s 4s 11 13 mph 1016.5mb 84f 81f
9:50am 1.6ft 9s 4s 11 13 mph 1016.6mb 84f 81f